sensor_id;sensor_type;location;lat;lon;timestamp;P1;durP1;ratioP1;P2;durP2;ratioP2
18001;SDS011;9126;48.160;17.130;2022-11-25T00:00:33;3.87;;;3.47;;
18001;SDS011;9126;48.160;17.130;2022-11-25T00:03:00;5.67;;;3.50;;
18001;SDS011;9126;48.160;17.130;2022-11-25T00:05:27;5.87;;;3.60;;
18001;SDS011;9126;48.160;17.130;2022-11-25T00:07:54;6.27;;;4.20;;
18001;SDS011;9126;48.160;17.130;2022-11-25T00:10:22;4.83;;;3.57;;
18001;SDS011;9126;48.160;17.130;2022-11-25T00:12:49;7.37;;;4.23;;
18001;SDS011;9126;48.160;17.130;2022-11-25T00:15:16;5.90;;;4.07;;
18001;SDS011;9126;48.160;17.130;2022-11-25T00:17:43;7.37;;;4.20;;
18001;SDS011;9126;48.160;17.130;2022-11-25T00:20:10;8.57;;;4.30;;
18001;SDS011;9126;48.160;17.130;2022-11-25T00:22:37;6.47;;;3.60;;
18001;SDS011;9126;48.160;17.130;2022-11-25T00:25:05;8.27;;;4.30;;
18001;SDS011;9126;48.160;17.130;2022-11-25T00:27:33;8.33;;;4.00;;
18001;SDS011;9126;48.160;17.130;2022-11-25T00:30:00;7.20;;;4.27;;
18001;SDS011;9126;48.160;17.130;2022-11-25T00:32:27;6.17;;;3.77;;
18001;SDS011;9126;48.160;17.130;2022-11-25T00:34:54;7.87;;;3.67;;
18001;SDS011;9126;48.160;17.130;2022-11-25T00:37:21;5.80;;;3.83;;
18001;SDS011;9126;48.160;17.130;2022-11-25T00:39:48;7.37;;;4.17;;
18001;SDS011;9126;48.160;17.130;2022-11-25T00:42:15;6.20;;;4.40;;
18001;SDS011;9126;48.160;17.130;2022-11-25T00:45:02;7.10;;;4.20;;
18001;SDS011;9126;48.160;17.130;2022-11-25T00:47:30;6.03;;;4.30;;
18001;SDS011;9126;48.160;17.130;2022-11-25T00:49:57;8.53;;;4.83;;
18001;SDS011;9126;48.160;17.130;2022-11-25T00:52:24;9.57;;;4.10;;
18001;SDS011;9126;48.160;17.130;2022-11-25T00:54:52;6.83;;;4.67;;
18001;SDS011;9126;48.160;17.130;2022-11-25T00:57:20;6.83;;;4.60;;
18001;SDS011;9126;48.160;17.130;2022-11-25T00:59:48;7.47;;;4.63;;
18001;SDS011;9126;48.160;17.130;2022-11-25T01:02:19;8.90;;;4.50;;
18001;SDS011;9126;48.160;17.130;2022-11-25T01:04:47;6.20;;;4.90;;
18001;SDS011;9126;48.160;17.130;2022-11-25T01:07:14;6.93;;;4.67;;
18001;SDS011;9126;48.160;17.130;2022-11-25T01:09:42;7.30;;;4.80;;
18001;SDS011;9126;48.160;17.130;2022-11-25T01:12:09;7.97;;;4.43;;
18001;SDS011;9126;48.160;17.130;2022-11-25T01:14:36;7.57;;;4.27;;
18001;SDS011;9126;48.160;17.130;2022-11-25T01:17:03;7.80;;;4.40;;
18001;SDS011;9126;48.160;17.130;2022-11-25T01:19:31;7.97;;;4.67;;
18001;SDS011;9126;48.160;17.130;2022-11-25T01:22:02;8.20;;;4.17;;
18001;SDS011;9126;48.160;17.130;2022-11-25T01:24:29;6.43;;;4.20;;
18001;SDS011;9126;48.160;17.130;2022-11-25T01:26:56;8.80;;;4.10;;
18001;SDS011;9126;48.160;17.130;2022-11-25T01:29:23;6.40;;;4.40;;
18001;SDS011;9126;48.160;17.130;2022-11-25T01:31:50;6.87;;;3.40;;
18001;SDS011;9126;48.160;17.130;2022-11-25T01:34:20;9.00;;;4.23;;
18001;SDS011;9126;48.160;17.130;2022-11-25T01:36:49;6.33;;;4.17;;
18001;SDS011;9126;48.160;17.130;2022-11-25T01:39:17;5.93;;;4.40;;
18001;SDS011;9126;48.160;17.130;2022-11-25T01:41:45;6.07;;;3.63;;
18001;SDS011;9126;48.160;17.130;2022-11-25T01:44:14;6.07;;;3.70;;
18001;SDS011;9126;48.160;17.130;2022-11-25T01:46:46;8.13;;;3.60;;
18001;SDS011;9126;48.160;17.130;2022-11-25T01:49:18;7.60;;;4.17;;
18001;SDS011;9126;48.160;17.130;2022-11-25T01:51:51;5.77;;;3.50;;
18001;SDS011;9126;48.160;17.130;2022-11-25T01:54:23;5.40;;;3.43;;
18001;SDS011;9126;48.160;17.130;2022-11-25T01:56:56;5.17;;;4.07;;
18001;SDS011;9126;48.160;17.130;2022-11-25T01:59:25;5.00;;;3.00;;
18001;SDS011;9126;48.160;17.130;2022-11-25T02:01:53;4.60;;;3.43;;
18001;SDS011;9126;48.160;17.130;2022-11-25T02:04:22;4.33;;;3.47;;
18001;SDS011;9126;48.160;17.130;2022-11-25T02:06:56;4.80;;;3.83;;
18001;SDS011;9126;48.160;17.130;2022-11-25T02:09:28;5.63;;;3.57;;
18001;SDS011;9126;48.160;17.130;2022-11-25T02:11:56;8.13;;;4.37;;
18001;SDS011;9126;48.160;17.130;2022-11-25T02:14:23;7.10;;;3.73;;
18001;SDS011;9126;48.160;17.130;2022-11-25T02:16:52;6.63;;;4.40;;
18001;SDS011;9126;48.160;17.130;2022-11-25T02:19:21;6.67;;;4.23;;
18001;SDS011;9126;48.160;17.130;2022-11-25T02:21:51;6.03;;;4.10;;
18001;SDS011;9126;48.160;17.130;2022-11-25T02:24:26;7.77;;;3.80;;
18001;SDS011;9126;48.160;17.130;2022-11-25T02:27:01;7.63;;;4.13;;
18001;SDS011;9126;48.160;17.130;2022-11-25T02:29:28;7.87;;;3.73;;
18001;SDS011;9126;48.160;17.130;2022-11-25T02:31:56;5.93;;;4.13;;
18001;SDS011;9126;48.160;17.130;2022-11-25T02:34:22;5.10;;;4.07;;
18001;SDS011;9126;48.160;17.130;2022-11-25T02:36:50;5.27;;;3.93;;
18001;SDS011;9126;48.160;17.130;2022-11-25T02:39:18;7.83;;;4.30;;
18001;SDS011;9126;48.160;17.130;2022-11-25T02:41:47;7.33;;;4.90;;
18001;SDS011;9126;48.160;17.130;2022-11-25T02:44:18;6.60;;;4.73;;
18001;SDS011;9126;48.160;17.130;2022-11-25T02:46:45;6.77;;;4.40;;
18001;SDS011;9126;48.160;17.130;2022-11-25T02:49:13;5.93;;;4.43;;
18001;SDS011;9126;48.160;17.130;2022-11-25T02:51:41;5.03;;;4.23;;
18001;SDS011;9126;48.160;17.130;2022-11-25T02:54:09;9.20;;;5.20;;
18001;SDS011;9126;48.160;17.130;2022-11-25T02:56:36;8.60;;;4.70;;
18001;SDS011;9126;48.160;17.130;2022-11-25T02:59:04;7.47;;;5.13;;
18001;SDS011;9126;48.160;17.130;2022-11-25T03:01:33;8.60;;;5.33;;
18001;SDS011;9126;48.160;17.130;2022-11-25T03:04:00;9.40;;;5.57;;
18001;SDS011;9126;48.160;17.130;2022-11-25T03:06:27;11.70;;;5.40;;
18001;SDS011;9126;48.160;17.130;2022-11-25T03:08:55;8.00;;;5.60;;
18001;SDS011;9126;48.160;17.130;2022-11-25T03:11:22;7.50;;;6.07;;
18001;SDS011;9126;48.160;17.130;2022-11-25T03:14:10;7.10;;;4.73;;
18001;SDS011;9126;48.160;17.130;2022-11-25T03:16:38;6.90;;;5.37;;
18001;SDS011;9126;48.160;17.130;2022-11-25T03:19:05;7.90;;;5.50;;
18001;SDS011;9126;48.160;17.130;2022-11-25T03:21:33;7.50;;;5.13;;
18001;SDS011;9126;48.160;17.130;2022-11-25T03:24:00;7.87;;;5.50;;
18001;SDS011;9126;48.160;17.130;2022-11-25T03:26:27;9.83;;;5.80;;
18001;SDS011;9126;48.160;17.130;2022-11-25T03:28:54;8.00;;;5.23;;
18001;SDS011;9126;48.160;17.130;2022-11-25T03:31:21;7.07;;;5.03;;
18001;SDS011;9126;48.160;17.130;2022-11-25T03:33:50;9.03;;;5.73;;
18001;SDS011;9126;48.160;17.130;2022-11-25T03:36:17;8.87;;;5.67;;
18001;SDS011;9126;48.160;17.130;2022-11-25T03:38:45;9.90;;;5.93;;
18001;SDS011;9126;48.160;17.130;2022-11-25T03:41:11;6.80;;;4.80;;
18001;SDS011;9126;48.160;17.130;2022-11-25T03:43:38;8.47;;;5.03;;
18001;SDS011;9126;48.160;17.130;2022-11-25T03:46:05;6.83;;;4.47;;
18001;SDS011;9126;48.160;17.130;2022-11-25T03:48:32;6.53;;;4.37;;
18001;SDS011;9126;48.160;17.130;2022-11-25T03:51:00;4.47;;;3.83;;
18001;SDS011;9126;48.160;17.130;2022-11-25T03:53:27;7.27;;;4.00;;
18001;SDS011;9126;48.160;17.130;2022-11-25T03:55:54;4.00;;;3.10;;
18001;SDS011;9126;48.160;17.130;2022-11-25T03:58:21;5.27;;;3.30;;
18001;SDS011;9126;48.160;17.130;2022-11-25T04:00:48;4.20;;;3.13;;
18001;SDS011;9126;48.160;17.130;2022-11-25T04:03:15;5.13;;;3.43;;
18001;SDS011;9126;48.160;17.130;2022-11-25T04:05:42;4.57;;;3.77;;
18001;SDS011;9126;48.160;17.130;2022-11-25T04:08:12;5.03;;;3.20;;
18001;SDS011;9126;48.160;17.130;2022-11-25T04:10:39;4.50;;;3.37;;
18001;SDS011;9126;48.160;17.130;2022-11-25T04:13:06;7.63;;;3.60;;
18001;SDS011;9126;48.160;17.130;2022-11-25T04:15:32;4.43;;;3.10;;
18001;SDS011;9126;48.160;17.130;2022-11-25T04:17:59;6.43;;;3.13;;
18001;SDS011;9126;48.160;17.130;2022-11-25T04:20:26;3.33;;;2.90;;
18001;SDS011;9126;48.160;17.130;2022-11-25T04:22:53;3.80;;;2.80;;
18001;SDS011;9126;48.160;17.130;2022-11-25T04:25:21;4.33;;;3.33;;
18001;SDS011;9126;48.160;17.130;2022-11-25T04:27:48;5.07;;;3.60;;
18001;SDS011;9126;48.160;17.130;2022-11-25T04:30:15;6.60;;;3.73;;
18001;SDS011;9126;48.160;17.130;2022-11-25T04:32:42;4.37;;;3.13;;
18001;SDS011;9126;48.160;17.130;2022-11-25T04:35:09;4.83;;;3.43;;
18001;SDS011;9126;48.160;17.130;2022-11-25T04:37:36;5.53;;;3.73;;
18001;SDS011;9126;48.160;17.130;2022-11-25T04:40:03;5.03;;;4.00;;
18001;SDS011;9126;48.160;17.130;2022-11-25T04:42:33;4.60;;;3.63;;
18001;SDS011;9126;48.160;17.130;2022-11-25T04:45:02;6.50;;;4.10;;
18001;SDS011;9126;48.160;17.130;2022-11-25T04:47:30;4.67;;;4.27;;
18001;SDS011;9126;48.160;17.130;2022-11-25T04:49:57;5.37;;;4.87;;
18001;SDS011;9126;48.160;17.130;2022-11-25T04:52:25;6.50;;;4.20;;
18001;SDS011;9126;48.160;17.130;2022-11-25T04:54:52;6.73;;;4.10;;
18001;SDS011;9126;48.160;17.130;2022-11-25T04:57:19;7.37;;;4.50;;
18001;SDS011;9126;48.160;17.130;2022-11-25T04:59:47;7.90;;;4.10;;
18001;SDS011;9126;48.160;17.130;2022-11-25T05:02:14;5.70;;;4.00;;
18001;SDS011;9126;48.160;17.130;2022-11-25T05:04:42;5.73;;;4.90;;
18001;SDS011;9126;48.160;17.130;2022-11-25T05:07:11;5.97;;;4.70;;
18001;SDS011;9126;48.160;17.130;2022-11-25T05:09:39;7.20;;;4.27;;
18001;SDS011;9126;48.160;17.130;2022-11-25T05:12:07;7.70;;;5.13;;
18001;SDS011;9126;48.160;17.130;2022-11-25T05:14:38;9.57;;;4.83;;
18001;SDS011;9126;48.160;17.130;2022-11-25T05:17:06;5.73;;;4.90;;
18001;SDS011;9126;48.160;17.130;2022-11-25T05:19:37;6.97;;;4.60;;
18001;SDS011;9126;48.160;17.130;2022-11-25T05:22:04;5.00;;;4.50;;
18001;SDS011;9126;48.160;17.130;2022-11-25T05:24:35;9.03;;;5.23;;
18001;SDS011;9126;48.160;17.130;2022-11-25T05:27:05;8.50;;;5.20;;
18001;SDS011;9126;48.160;17.130;2022-11-25T05:29:42;5.50;;;4.73;;
18001;SDS011;9126;48.160;17.130;2022-11-25T05:32:13;5.47;;;4.30;;
18001;SDS011;9126;48.160;17.130;2022-11-25T05:34:40;6.93;;;4.40;;
18001;SDS011;9126;48.160;17.130;2022-11-25T05:37:07;6.47;;;4.67;;
18001;SDS011;9126;48.160;17.130;2022-11-25T05:39:35;5.10;;;4.40;;
18001;SDS011;9126;48.160;17.130;2022-11-25T05:42:02;4.70;;;3.80;;
18001;SDS011;9126;48.160;17.130;2022-11-25T05:44:32;5.97;;;4.43;;
18001;SDS011;9126;48.160;17.130;2022-11-25T05:47:04;4.63;;;3.60;;
18001;SDS011;9126;48.160;17.130;2022-11-25T05:49:33;4.33;;;3.57;;
18001;SDS011;9126;48.160;17.130;2022-11-25T05:52:00;5.90;;;3.70;;
18001;SDS011;9126;48.160;17.130;2022-11-25T05:54:28;6.10;;;3.50;;
18001;SDS011;9126;48.160;17.130;2022-11-25T05:56:55;5.20;;;3.93;;
18001;SDS011;9126;48.160;17.130;2022-11-25T05:59:21;7.33;;;4.20;;
18001;SDS011;9126;48.160;17.130;2022-11-25T06:01:51;5.77;;;3.63;;
18001;SDS011;9126;48.160;17.130;2022-11-25T06:04:18;11.00;;;3.93;;
18001;SDS011;9126;48.160;17.130;2022-11-25T06:06:50;4.97;;;3.17;;
18001;SDS011;9126;48.160;17.130;2022-11-25T06:09:18;6.27;;;3.73;;
18001;SDS011;9126;48.160;17.130;2022-11-25T06:11:49;7.40;;;4.07;;
18001;SDS011;9126;48.160;17.130;2022-11-25T06:14:16;4.73;;;3.87;;
18001;SDS011;9126;48.160;17.130;2022-11-25T06:16:43;8.37;;;3.57;;
18001;SDS011;9126;48.160;17.130;2022-11-25T06:19:10;5.33;;;3.50;;
18001;SDS011;9126;48.160;17.130;2022-11-25T06:21:37;10.77;;;4.77;;
18001;SDS011;9126;48.160;17.130;2022-11-25T06:24:05;7.13;;;3.80;;
18001;SDS011;9126;48.160;17.130;2022-11-25T06:26:32;6.37;;;3.87;;
18001;SDS011;9126;48.160;17.130;2022-11-25T06:28:59;7.77;;;3.67;;
18001;SDS011;9126;48.160;17.130;2022-11-25T06:31:26;5.63;;;3.67;;
18001;SDS011;9126;48.160;17.130;2022-11-25T06:33:53;14.50;;;5.97;;
18001;SDS011;9126;48.160;17.130;2022-11-25T06:36:21;6.63;;;3.77;;
18001;SDS011;9126;48.160;17.130;2022-11-25T06:38:49;5.60;;;3.70;;
18001;SDS011;9126;48.160;17.130;2022-11-25T06:41:19;7.53;;;4.20;;
18001;SDS011;9126;48.160;17.130;2022-11-25T06:43:48;7.30;;;4.93;;
18001;SDS011;9126;48.160;17.130;2022-11-25T06:46:15;7.33;;;4.87;;
18001;SDS011;9126;48.160;17.130;2022-11-25T06:48:44;10.10;;;5.00;;
18001;SDS011;9126;48.160;17.130;2022-11-25T06:51:12;7.40;;;5.33;;
18001;SDS011;9126;48.160;17.130;2022-11-25T06:53:40;10.30;;;5.73;;
18001;SDS011;9126;48.160;17.130;2022-11-25T06:56:08;8.47;;;5.17;;
18001;SDS011;9126;48.160;17.130;2022-11-25T06:58:39;9.73;;;5.37;;
18001;SDS011;9126;48.160;17.130;2022-11-25T07:01:09;8.00;;;5.80;;
18001;SDS011;9126;48.160;17.130;2022-11-25T07:03:38;9.30;;;6.30;;
18001;SDS011;9126;48.160;17.130;2022-11-25T07:06:05;11.67;;;6.13;;
18001;SDS011;9126;48.160;17.130;2022-11-25T07:08:33;10.10;;;5.70;;
18001;SDS011;9126;48.160;17.130;2022-11-25T07:11:04;7.63;;;5.37;;
18001;SDS011;9126;48.160;17.130;2022-11-25T07:13:32;10.33;;;5.80;;
18001;SDS011;9126;48.160;17.130;2022-11-25T07:16:02;3.97;;;2.60;;
18001;SDS011;9126;48.160;17.130;2022-11-25T07:18:30;5.90;;;5.23;;
18001;SDS011;9126;48.160;17.130;2022-11-25T07:21:02;6.97;;;5.60;;
18001;SDS011;9126;48.160;17.130;2022-11-25T07:23:31;8.80;;;5.30;;
18001;SDS011;9126;48.160;17.130;2022-11-25T07:26:02;14.33;;;5.70;;
18001;SDS011;9126;48.160;17.130;2022-11-25T07:28:29;12.13;;;6.00;;
18001;SDS011;9126;48.160;17.130;2022-11-25T07:31:04;9.77;;;5.67;;
18001;SDS011;9126;48.160;17.130;2022-11-25T07:33:32;20.57;;;12.47;;
18001;SDS011;9126;48.160;17.130;2022-11-25T07:36:03;8.23;;;6.20;;
18001;SDS011;9126;48.160;17.130;2022-11-25T07:38:30;8.47;;;7.13;;
18001;SDS011;9126;48.160;17.130;2022-11-25T07:41:02;8.70;;;5.10;;
18001;SDS011;9126;48.160;17.130;2022-11-25T07:43:30;10.30;;;4.70;;
18001;SDS011;9126;48.160;17.130;2022-11-25T07:46:07;15.03;;;4.80;;
18001;SDS011;9126;48.160;17.130;2022-11-25T07:48:35;13.90;;;6.20;;
18001;SDS011;9126;48.160;17.130;2022-11-25T07:51:04;8.67;;;4.03;;
18001;SDS011;9126;48.160;17.130;2022-11-25T07:53:39;9.07;;;4.30;;
18001;SDS011;9126;48.160;17.130;2022-11-25T07:56:08;7.63;;;4.33;;
18001;SDS011;9126;48.160;17.130;2022-11-25T07:58:36;8.40;;;2.80;;
18001;SDS011;9126;48.160;17.130;2022-11-25T08:01:03;6.17;;;3.40;;
18001;SDS011;9126;48.160;17.130;2022-11-25T08:03:32;6.70;;;2.93;;
18001;SDS011;9126;48.160;17.130;2022-11-25T08:06:00;8.67;;;3.50;;
18001;SDS011;9126;48.160;17.130;2022-11-25T08:08:28;6.37;;;3.70;;
18001;SDS011;9126;48.160;17.130;2022-11-25T08:10:55;4.50;;;2.93;;
18001;SDS011;9126;48.160;17.130;2022-11-25T08:13:22;5.67;;;3.23;;
18001;SDS011;9126;48.160;17.130;2022-11-25T08:15:49;4.23;;;2.80;;
18001;SDS011;9126;48.160;17.130;2022-11-25T08:18:17;8.57;;;3.27;;
18001;SDS011;9126;48.160;17.130;2022-11-25T08:20:45;5.90;;;3.33;;
18001;SDS011;9126;48.160;17.130;2022-11-25T08:23:12;9.03;;;4.07;;
18001;SDS011;9126;48.160;17.130;2022-11-25T08:25:39;7.27;;;3.80;;
18001;SDS011;9126;48.160;17.130;2022-11-25T08:28:06;5.00;;;3.33;;
18001;SDS011;9126;48.160;17.130;2022-11-25T08:30:34;3.60;;;3.03;;
18001;SDS011;9126;48.160;17.130;2022-11-25T08:33:01;6.90;;;4.07;;
18001;SDS011;9126;48.160;17.130;2022-11-25T08:35:31;7.40;;;3.37;;
18001;SDS011;9126;48.160;17.130;2022-11-25T08:38:03;6.80;;;2.20;;
18001;SDS011;9126;48.160;17.130;2022-11-25T08:40:31;2.97;;;2.20;;
18001;SDS011;9126;48.160;17.130;2022-11-25T08:42:59;4.10;;;2.80;;
18001;SDS011;9126;48.160;17.130;2022-11-25T08:45:26;6.90;;;2.87;;
18001;SDS011;9126;48.160;17.130;2022-11-25T08:47:54;7.17;;;2.80;;
18001;SDS011;9126;48.160;17.130;2022-11-25T08:50:21;4.43;;;2.60;;
18001;SDS011;9126;48.160;17.130;2022-11-25T08:52:49;8.37;;;3.93;;
18001;SDS011;9126;48.160;17.130;2022-11-25T08:55:17;6.93;;;3.57;;
18001;SDS011;9126;48.160;17.130;2022-11-25T08:57:46;6.23;;;3.60;;
18001;SDS011;9126;48.160;17.130;2022-11-25T09:00:13;6.03;;;2.97;;
18001;SDS011;9126;48.160;17.130;2022-11-25T09:02:41;6.80;;;3.77;;
18001;SDS011;9126;48.160;17.130;2022-11-25T09:05:09;5.53;;;3.10;;
18001;SDS011;9126;48.160;17.130;2022-11-25T09:07:37;6.33;;;2.90;;
18001;SDS011;9126;48.160;17.130;2022-11-25T09:10:05;6.07;;;3.13;;
18001;SDS011;9126;48.160;17.130;2022-11-25T09:15:02;5.90;;;2.60;;
18001;SDS011;9126;48.160;17.130;2022-11-25T09:17:30;2.70;;;2.50;;
18001;SDS011;9126;48.160;17.130;2022-11-25T09:19:58;5.17;;;2.37;;
18001;SDS011;9126;48.160;17.130;2022-11-25T09:22:25;3.87;;;2.33;;
18001;SDS011;9126;48.160;17.130;2022-11-25T09:24:52;4.20;;;2.10;;
18001;SDS011;9126;48.160;17.130;2022-11-25T09:27:19;5.77;;;2.20;;
18001;SDS011;9126;48.160;17.130;2022-11-25T09:29:47;4.80;;;2.53;;
18001;SDS011;9126;48.160;17.130;2022-11-25T09:32:14;4.70;;;2.20;;
18001;SDS011;9126;48.160;17.130;2022-11-25T09:34:41;3.57;;;1.90;;
18001;SDS011;9126;48.160;17.130;2022-11-25T09:37:10;3.30;;;2.07;;
18001;SDS011;9126;48.160;17.130;2022-11-25T09:39:37;4.03;;;1.77;;
18001;SDS011;9126;48.160;17.130;2022-11-25T09:42:08;3.00;;;2.00;;
18001;SDS011;9126;48.160;17.130;2022-11-25T09:45:10;4.17;;;2.07;;
18001;SDS011;9126;48.160;17.130;2022-11-25T09:48:00;10.30;;;2.13;;
18001;SDS011;9126;48.160;17.130;2022-11-25T09:50:41;5.47;;;2.20;;
18001;SDS011;9126;48.160;17.130;2022-11-25T09:53:22;3.83;;;1.93;;
18001;SDS011;9126;48.160;17.130;2022-11-25T09:55:58;4.90;;;2.17;;
18001;SDS011;9126;48.160;17.130;2022-11-25T09:58:30;8.63;;;2.40;;
18001;SDS011;9126;48.160;17.130;2022-11-25T10:01:02;3.93;;;1.97;;
18001;SDS011;9126;48.160;17.130;2022-11-25T10:03:32;4.83;;;2.10;;
18001;SDS011;9126;48.160;17.130;2022-11-25T10:06:05;9.40;;;2.63;;
18001;SDS011;9126;48.160;17.130;2022-11-25T10:08:37;4.53;;;2.57;;
18001;SDS011;9126;48.160;17.130;2022-11-25T10:11:11;10.67;;;2.83;;
18001;SDS011;9126;48.160;17.130;2022-11-25T10:13:48;8.40;;;2.90;;
18001;SDS011;9126;48.160;17.130;2022-11-25T10:16:25;4.77;;;2.83;;
18001;SDS011;9126;48.160;17.130;2022-11-25T10:19:01;5.63;;;3.43;;
18001;SDS011;9126;48.160;17.130;2022-11-25T10:21:31;7.23;;;3.10;;
18001;SDS011;9126;48.160;17.130;2022-11-25T10:23:58;6.23;;;3.50;;
18001;SDS011;9126;48.160;17.130;2022-11-25T10:26:26;6.03;;;3.20;;
18001;SDS011;9126;48.160;17.130;2022-11-25T10:29:05;4.80;;;3.00;;
18001;SDS011;9126;48.160;17.130;2022-11-25T10:31:48;6.17;;;3.27;;
18001;SDS011;9126;48.160;17.130;2022-11-25T10:34:22;7.13;;;3.60;;
18001;SDS011;9126;48.160;17.130;2022-11-25T10:36:56;7.93;;;3.80;;
18001;SDS011;9126;48.160;17.130;2022-11-25T10:39:26;6.90;;;4.13;;
18001;SDS011;9126;48.160;17.130;2022-11-25T10:41:58;5.23;;;3.67;;
18001;SDS011;9126;48.160;17.130;2022-11-25T10:44:32;7.03;;;3.93;;
18001;SDS011;9126;48.160;17.130;2022-11-25T10:47:05;5.40;;;4.30;;
18001;SDS011;9126;48.160;17.130;2022-11-25T10:49:48;4.67;;;3.93;;
18001;SDS011;9126;48.160;17.130;2022-11-25T10:52:25;4.37;;;3.93;;
18001;SDS011;9126;48.160;17.130;2022-11-25T10:54:55;5.47;;;3.83;;
18001;SDS011;9126;48.160;17.130;2022-11-25T10:57:26;7.17;;;4.23;;
18001;SDS011;9126;48.160;17.130;2022-11-25T10:59:55;14.10;;;8.00;;
18001;SDS011;9126;48.160;17.130;2022-11-25T11:02:25;4.83;;;3.43;;
18001;SDS011;9126;48.160;17.130;2022-11-25T11:04:55;8.47;;;4.30;;
18001;SDS011;9126;48.160;17.130;2022-11-25T11:07:23;7.93;;;5.00;;
18001;SDS011;9126;48.160;17.130;2022-11-25T11:09:52;10.50;;;4.33;;
18001;SDS011;9126;48.160;17.130;2022-11-25T11:12:20;7.60;;;4.33;;
18001;SDS011;9126;48.160;17.130;2022-11-25T11:14:48;11.67;;;4.47;;
18001;SDS011;9126;48.160;17.130;2022-11-25T11:17:21;5.27;;;3.93;;
18001;SDS011;9126;48.160;17.130;2022-11-25T11:20:00;5.83;;;3.63;;
18001;SDS011;9126;48.160;17.130;2022-11-25T11:22:36;7.13;;;3.47;;
18001;SDS011;9126;48.160;17.130;2022-11-25T11:25:18;9.60;;;3.93;;
18001;SDS011;9126;48.160;17.130;2022-11-25T11:27:52;4.20;;;3.40;;
18001;SDS011;9126;48.160;17.130;2022-11-25T11:30:20;5.53;;;3.80;;
18001;SDS011;9126;48.160;17.130;2022-11-25T11:32:55;4.73;;;3.53;;
18001;SDS011;9126;48.160;17.130;2022-11-25T11:35:24;3.03;;;2.63;;
18001;SDS011;9126;48.160;17.130;2022-11-25T11:38:11;5.03;;;3.43;;
18001;SDS011;9126;48.160;17.130;2022-11-25T11:40:52;8.07;;;3.43;;
18001;SDS011;9126;48.160;17.130;2022-11-25T11:43:31;6.40;;;3.00;;
18001;SDS011;9126;48.160;17.130;2022-11-25T11:46:14;4.60;;;2.93;;
18001;SDS011;9126;48.160;17.130;2022-11-25T11:48:54;9.40;;;3.17;;
18001;SDS011;9126;48.160;17.130;2022-11-25T11:51:32;6.63;;;2.70;;
18001;SDS011;9126;48.160;17.130;2022-11-25T11:54:05;4.03;;;2.80;;
18001;SDS011;9126;48.160;17.130;2022-11-25T11:56:36;7.60;;;3.10;;
18001;SDS011;9126;48.160;17.130;2022-11-25T12:02:25;7.00;;;3.27;;
18001;SDS011;9126;48.160;17.130;2022-11-25T12:05:03;3.40;;;2.40;;
18001;SDS011;9126;48.160;17.130;2022-11-25T12:07:39;3.73;;;2.70;;
18001;SDS011;9126;48.160;17.130;2022-11-25T12:10:20;6.63;;;2.80;;
18001;SDS011;9126;48.160;17.130;2022-11-25T12:12:52;4.53;;;2.60;;
18001;SDS011;9126;48.160;17.130;2022-11-25T12:15:29;3.93;;;2.73;;
18001;SDS011;9126;48.160;17.130;2022-11-25T12:18:08;5.00;;;2.50;;
18001;SDS011;9126;48.160;17.130;2022-11-25T12:20:43;5.53;;;2.37;;
18001;SDS011;9126;48.160;17.130;2022-11-25T12:23:20;7.03;;;3.03;;
18001;SDS011;9126;48.160;17.130;2022-11-25T12:25:54;4.90;;;1.93;;
18001;SDS011;9126;48.160;17.130;2022-11-25T12:28:27;4.27;;;2.10;;
18001;SDS011;9126;48.160;17.130;2022-11-25T12:31:01;7.97;;;2.40;;
18001;SDS011;9126;48.160;17.130;2022-11-25T12:33:38;4.37;;;1.80;;
18001;SDS011;9126;48.160;17.130;2022-11-25T12:36:20;4.83;;;2.10;;
18001;SDS011;9126;48.160;17.130;2022-11-25T12:38:54;8.10;;;2.40;;
18001;SDS011;9126;48.160;17.130;2022-11-25T12:41:26;2.80;;;1.60;;
18001;SDS011;9126;48.160;17.130;2022-11-25T12:43:59;7.40;;;2.43;;
18001;SDS011;9126;48.160;17.130;2022-11-25T12:46:32;5.63;;;2.10;;
18001;SDS011;9126;48.160;17.130;2022-11-25T12:49:02;5.67;;;2.10;;
18001;SDS011;9126;48.160;17.130;2022-11-25T12:51:42;6.80;;;2.20;;
18001;SDS011;9126;48.160;17.130;2022-11-25T12:54:30;9.73;;;3.03;;
18001;SDS011;9126;48.160;17.130;2022-11-25T12:57:19;5.57;;;1.70;;
18001;SDS011;9126;48.160;17.130;2022-11-25T13:00:00;3.83;;;2.00;;
18001;SDS011;9126;48.160;17.130;2022-11-25T13:02:46;6.67;;;2.23;;
18001;SDS011;9126;48.160;17.130;2022-11-25T13:08:29;4.57;;;2.57;;
18001;SDS011;9126;48.160;17.130;2022-11-25T13:11:17;4.03;;;2.57;;
18001;SDS011;9126;48.160;17.130;2022-11-25T13:13:59;8.60;;;3.13;;
18001;SDS011;9126;48.160;17.130;2022-11-25T13:16:33;7.73;;;3.07;;
18001;SDS011;9126;48.160;17.130;2022-11-25T13:19:00;7.33;;;2.43;;
18001;SDS011;9126;48.160;17.130;2022-11-25T13:21:35;5.17;;;2.47;;
18001;SDS011;9126;48.160;17.130;2022-11-25T13:24:26;7.47;;;2.90;;
18001;SDS011;9126;48.160;17.130;2022-11-25T13:26:56;7.20;;;3.20;;
18001;SDS011;9126;48.160;17.130;2022-11-25T13:32:36;10.10;;;2.40;;
18001;SDS011;9126;48.160;17.130;2022-11-25T13:41:23;7.20;;;2.77;;
18001;SDS011;9126;48.160;17.130;2022-11-25T13:43:59;8.00;;;2.60;;
18001;SDS011;9126;48.160;17.130;2022-11-25T13:46:33;8.10;;;2.40;;
18001;SDS011;9126;48.160;17.130;2022-11-25T13:49:19;5.07;;;2.13;;
18001;SDS011;9126;48.160;17.130;2022-11-25T13:51:50;5.33;;;2.37;;
18001;SDS011;9126;48.160;17.130;2022-11-25T13:54:20;9.60;;;2.57;;
18001;SDS011;9126;48.160;17.130;2022-11-25T13:57:00;6.63;;;3.23;;
18001;SDS011;9126;48.160;17.130;2022-11-25T13:59:59;8.20;;;2.57;;
18001;SDS011;9126;48.160;17.130;2022-11-25T14:02:33;4.27;;;2.03;;
18001;SDS011;9126;48.160;17.130;2022-11-25T14:05:34;8.63;;;3.83;;
18001;SDS011;9126;48.160;17.130;2022-11-25T14:08:25;8.10;;;3.13;;
18001;SDS011;9126;48.160;17.130;2022-11-25T14:11:13;6.63;;;2.03;;
18001;SDS011;9126;48.160;17.130;2022-11-25T14:14:12;7.87;;;2.37;;
18001;SDS011;9126;48.160;17.130;2022-11-25T14:16:57;6.63;;;2.13;;
18001;SDS011;9126;48.160;17.130;2022-11-25T14:22:52;6.47;;;2.47;;
18001;SDS011;9126;48.160;17.130;2022-11-25T14:25:48;8.83;;;4.73;;
18001;SDS011;9126;48.160;17.130;2022-11-25T14:28:20;7.27;;;3.33;;
18001;SDS011;9126;48.160;17.130;2022-11-25T14:30:57;4.70;;;1.83;;
18001;SDS011;9126;48.160;17.130;2022-11-25T14:33:31;10.03;;;2.33;;
18001;SDS011;9126;48.160;17.130;2022-11-25T14:36:02;4.63;;;1.70;;
18001;SDS011;9126;48.160;17.130;2022-11-25T14:38:35;10.07;;;2.63;;
18001;SDS011;9126;48.160;17.130;2022-11-25T14:41:10;12.63;;;5.20;;
18001;SDS011;9126;48.160;17.130;2022-11-25T14:43:44;7.57;;;5.77;;
18001;SDS011;9126;48.160;17.130;2022-11-25T14:46:17;12.90;;;8.50;;
18001;SDS011;9126;48.160;17.130;2022-11-25T14:48:51;19.07;;;12.50;;
18001;SDS011;9126;48.160;17.130;2022-11-25T14:51:20;20.97;;;12.57;;
18001;SDS011;9126;48.160;17.130;2022-11-25T14:53:50;16.20;;;11.57;;
18001;SDS011;9126;48.160;17.130;2022-11-25T14:56:22;21.20;;;13.40;;
18001;SDS011;9126;48.160;17.130;2022-11-25T14:58:52;17.53;;;12.60;;
18001;SDS011;9126;48.160;17.130;2022-11-25T15:01:23;20.03;;;13.33;;
18001;SDS011;9126;48.160;17.130;2022-11-25T15:03:59;15.13;;;9.20;;
18001;SDS011;9126;48.160;17.130;2022-11-25T15:06:32;14.37;;;10.17;;
18001;SDS011;9126;48.160;17.130;2022-11-25T15:09:00;16.97;;;10.60;;
18001;SDS011;9126;48.160;17.130;2022-11-25T15:11:29;16.27;;;10.97;;
18001;SDS011;9126;48.160;17.130;2022-11-25T15:14:00;18.17;;;11.57;;
18001;SDS011;9126;48.160;17.130;2022-11-25T15:16:31;17.90;;;12.00;;
18001;SDS011;9126;48.160;17.130;2022-11-25T15:19:01;18.67;;;11.80;;
18001;SDS011;9126;48.160;17.130;2022-11-25T15:21:30;25.00;;;12.20;;
18001;SDS011;9126;48.160;17.130;2022-11-25T15:24:02;20.40;;;12.77;;
18001;SDS011;9126;48.160;17.130;2022-11-25T15:26:32;20.17;;;12.83;;
18001;SDS011;9126;48.160;17.130;2022-11-25T15:29:05;20.00;;;13.87;;